Time;durP1;ratioP1;P1;durP2;ratioP2;P2;SDS_P1;SDS_P2;PMS_P1;PMS_P2;Temp;Humidity;BMP_temperature;BMP_pressure;BME280_temperature;BME280_humidity;BME280_pressure;Samples;Min_cycle;Max_cycle;Signal;HPM_P1;HPM_P2
2022/04/02 00:02:14;;;;;;;8.63;2.78;;;18.30;58.30;;;;;;7899336;28;20181;-50
2022/04/02 00:05:59;;;;;;;10.02;3.00;;;18.20;58.20;;;;;;7900789;28;20211;-53
2022/04/02 00:09:45;;;;;;;4.40;2.80;;;18.20;58.20;;;;;;7900676;28;20736;-54
2022/04/02 00:13:31;;;;;;;4.95;2.67;;;18.20;58.30;;;;;;7900701;28;20196;-52
2022/04/02 00:17:17;;;;;;;12.95;2.80;;;18.20;58.40;;;;;;7900802;28;20690;-49
2022/04/02 00:21:02;;;;;;;7.88;2.90;;;18.20;58.40;;;;;;7900588;28;20207;-52
2022/04/02 00:24:48;;;;;;;7.47;2.88;;;18.10;58.40;;;;;;7900525;28;20197;-50
2022/04/02 00:28:35;;;;;;;8.60;2.80;;;18.10;58.40;;;;;;7899198;28;20211;-52
2022/04/02 00:32:20;;;;;;;5.40;2.80;;;18.10;58.40;;;;;;7900252;28;20184;-50
2022/04/02 00:36:07;;;;;;;7.43;3.10;;;18.10;58.40;;;;;;7908902;28;20252;-52
2022/04/02 00:39:52;;;;;;;8.75;2.92;;;18.10;58.40;;;;;;7917193;28;20267;-51
2022/04/02 00:43:42;;;;;;;8.73;3.30;;;18.10;58.40;;;;;;7914515;28;20203;-53
2022/04/02 00:47:27;;;;;;;6.47;3.25;;;18.10;58.40;;;;;;7916641;28;20674;-50
2022/04/02 00:51:15;;;;;;;7.53;3.13;;;18.10;58.30;;;;;;7912156;28;20616;-49
2022/04/02 00:55:01;;;;;;;5.65;3.10;;;18.00;58.20;;;;;;7917607;28;20208;-56
2022/04/02 00:58:46;;;;;;;5.07;2.63;;;18.00;58.20;;;;;;7928911;28;20634;-50
2022/04/02 01:02:32;;;;;;;6.50;2.70;;;18.00;58.20;;;;;;7932051;28;20195;-52
2022/04/02 01:06:20;;;;;;;6.57;3.00;;;18.00;58.10;;;;;;7931955;28;20266;-55
2022/04/02 01:10:06;;;;;;;5.95;2.70;;;18.00;58.00;;;;;;7935655;28;20199;-51
2022/04/02 01:13:51;;;;;;;5.45;3.22;;;18.00;58.70;;;;;;7938062;28;20184;-50
2022/04/02 01:17:40;;;;;;;8.77;3.08;;;17.90;58.10;;;;;;7937937;28;20863;-50
2022/04/02 01:21:30;;;;;;;8.70;3.10;;;17.90;58.10;;;;;;7937329;28;20191;-50
2022/04/02 01:25:15;;;;;;;4.72;2.70;;;17.90;58.10;;;;;;7937371;28;20207;-50
2022/04/02 01:29:01;;;;;;;6.53;3.10;;;17.90;58.10;;;;;;7937294;28;20203;-55
2022/04/02 01:32:46;;;;;;;10.65;2.95;;;17.90;58.00;;;;;;7937046;28;20237;-53
2022/04/02 01:36:32;;;;;;;6.85;2.85;;;17.90;58.00;;;;;;7937023;28;20249;-53
2022/04/02 01:40:19;;;;;;;4.32;2.67;;;17.90;57.90;;;;;;7936665;28;20617;-50
2022/04/02 01:44:04;;;;;;;4.95;2.75;;;17.80;57.80;;;;;;7936666;28;20199;-50
2022/04/02 01:47:51;;;;;;;4.93;2.30;;;17.80;57.80;;;;;;7936617;28;20781;-50
2022/04/02 01:51:37;;;;;;;7.15;3.38;;;17.80;57.70;;;;;;7936080;28;20218;-50
2022/04/02 01:55:22;;;;;;;4.43;2.53;;;17.80;57.80;;;;;;7936871;28;20192;-53
2022/04/02 01:59:08;;;;;;;7.95;2.90;;;17.80;57.70;;;;;;7936179;28;20192;-53
2022/04/02 02:02:53;;;;;;;5.60;3.13;;;17.70;57.70;;;;;;7936089;28;20247;-53
2022/04/02 02:06:40;;;;;;;8.90;3.20;;;17.70;57.60;;;;;;7936109;28;20172;-53
2022/04/02 02:10:26;;;;;;;4.35;2.53;;;17.70;57.60;;;;;;7935624;28;20576;-53
2022/04/02 02:14:11;;;;;;;7.03;2.97;;;17.70;57.70;;;;;;7935817;28;20223;-53
2022/04/02 02:17:57;;;;;;;8.35;3.08;;;17.70;57.60;;;;;;7935924;27;20184;-53
2022/04/02 02:21:42;;;;;;;6.20;2.80;;;17.70;57.60;;;;;;7934191;28;20725;-53
2022/04/02 02:25:28;;;;;;;4.50;2.63;;;17.70;57.50;;;;;;7935728;28;20196;-53
2022/04/02 02:29:13;;;;;;;4.88;2.65;;;17.70;57.40;;;;;;7935231;28;20200;-53
2022/04/02 02:35:49;;;;;;;5.35;3.05;;;17.60;57.40;;;;;;7935426;28;20175;-55
2022/04/02 02:37:23;;;;;;;3.85;2.83;;;17.60;57.40;;;;;;7935274;28;20190;-53
2022/04/02 02:41:10;;;;;;;4.40;3.03;;;17.60;57.30;;;;;;7935263;28;20202;-54
2022/04/02 02:44:55;;;;;;;5.70;3.78;;;17.60;57.40;;;;;;7935389;28;20200;-53
2022/04/02 02:48:41;;;;;;;3.72;2.58;;;17.60;57.30;;;;;;7934841;28;20199;-54
2022/04/02 02:52:27;;;;;;;4.03;2.58;;;17.60;57.30;;;;;;7918941;28;20587;-53
2022/04/02 02:56:13;;;;;;;4.22;2.85;;;17.60;57.50;;;;;;7903970;28;20215;-54
2022/04/02 02:59:58;;;;;;;4.90;2.75;;;17.60;57.60;;;;;;7926997;28;20192;-55
2022/04/02 03:03:44;;;;;;;7.75;3.05;;;17.60;57.60;;;;;;7934394;28;20215;-55
2022/04/02 03:07:35;;;;;;;5.13;2.60;;;17.60;57.80;;;;;;7930109;28;20196;-55
2022/04/02 03:11:21;;;;;;;4.25;2.70;;;17.60;57.60;;;;;;7912919;28;20219;-54
2022/04/02 03:15:06;;;;;;;4.32;2.30;;;17.50;57.50;;;;;;7902447;28;20192;-55
2022/04/02 03:18:52;;;;;;;3.38;2.58;;;17.60;57.60;;;;;;7902217;28;20187;-55
2022/04/02 03:22:40;;;;;;;3.72;2.40;;;17.50;57.60;;;;;;7909543;28;20594;-53
2022/04/02 03:26:26;;;;;;;3.80;2.53;;;17.50;57.60;;;;;;7924496;28;20223;-55
2022/04/02 03:30:13;;;;;;;9.43;2.42;;;17.50;57.80;;;;;;7933201;28;20245;-54
2022/04/02 03:33:59;;;;;;;8.48;2.75;;;17.50;58.30;;;;;;7921549;28;20548;-52
2022/04/02 03:37:47;;;;;;;4.65;2.20;;;17.50;58.30;;;;;;7928871;28;20275;-53
2022/04/02 03:41:33;;;;;;;6.38;2.47;;;17.50;58.10;;;;;;7900911;28;20192;-54
2022/04/02 03:45:21;;;;;;;6.70;2.50;;;17.50;57.90;;;;;;7902747;28;20208;-54
2022/04/02 03:49:06;;;;;;;7.25;2.30;;;17.50;57.80;;;;;;7903659;28;20269;-54
2022/04/02 03:52:53;;;;;;;6.68;2.40;;;17.50;57.80;;;;;;7900486;28;20177;-53
2022/04/02 03:56:38;;;;;;;5.40;2.25;;;17.60;57.90;;;;;;7900737;28;20177;-53
2022/04/02 04:00:24;;;;;;;4.75;2.47;;;17.50;58.00;;;;;;7900317;28;20672;-53
2022/04/02 04:04:10;;;;;;;4.35;2.30;;;17.50;57.90;;;;;;7900401;28;20200;-54
2022/04/02 04:07:56;;;;;;;5.53;2.10;;;17.50;57.90;;;;;;7900515;28;20180;-53
2022/04/02 04:11:41;;;;;;;2.75;2.10;;;17.50;57.80;;;;;;7900535;28;20302;-53
2022/04/02 04:15:27;;;;;;;5.95;2.70;;;17.50;57.90;;;;;;7900763;28;20663;-55
2022/04/02 04:19:13;;;;;;;5.55;2.45;;;17.50;58.00;;;;;;7900559;28;20212;-52
2022/04/02 04:23:00;;;;;;;4.70;2.40;;;17.50;58.00;;;;;;7923484;28;20186;-53
2022/04/02 04:26:45;;;;;;;2.65;1.80;;;17.50;57.90;;;;;;7932081;28;20184;-53
2022/04/02 04:30:31;;;;;;;3.20;2.20;;;17.60;57.90;;;;;;7932015;28;20218;-55
2022/04/02 04:34:17;;;;;;;5.40;2.20;;;17.60;57.90;;;;;;7932398;28;20184;-53
2022/04/02 04:38:03;;;;;;;4.03;2.35;;;17.70;57.90;;;;;;7932179;28;20218;-54
2022/04/02 04:41:48;;;;;;;4.13;2.10;;;17.70;57.80;;;;;;7916170;28;20184;-53
2022/04/02 04:45:34;;;;;;;4.20;2.13;;;17.80;57.80;;;;;;7904642;28;20192;-53
2022/04/02 04:49:19;;;;;;;2.90;1.95;;;17.90;57.70;;;;;;7905864;28;20207;-53
2022/04/02 04:53:05;;;;;;;5.38;2.10;;;17.90;57.60;;;;;;7906569;28;20176;-53
2022/04/02 04:56:50;;;;;;;6.30;2.50;;;18.00;58.10;;;;;;7905781;28;20184;-53
2022/04/02 05:00:36;;;;;;;3.45;2.03;;;18.10;57.90;;;;;;7906211;28;20177;-53
2022/04/02 05:04:22;;;;;;;4.15;2.10;;;18.10;57.60;;;;;;7906225;28;20215;-53
2022/04/02 05:08:08;;;;;;;3.85;2.08;;;18.20;57.40;;;;;;7906264;28;20172;-54
2022/04/02 05:11:53;;;;;;;7.97;2.10;;;18.20;57.30;;;;;;7905777;28;20231;-53
2022/04/02 05:15:41;;;;;;;3.08;2.00;;;18.20;57.20;;;;;;7905907;28;20276;-55
2022/04/02 05:19:27;;;;;;;3.50;2.15;;;18.30;57.20;;;;;;7911046;28;20176;-53
2022/04/02 05:23:12;;;;;;;4.38;2.03;;;18.30;57.20;;;;;;7937429;28;20199;-53
2022/04/02 05:26:58;;;;;;;4.07;2.22;;;18.40;57.30;;;;;;7931026;28;20185;-52
2022/04/02 05:30:43;;;;;;;3.85;2.00;;;18.40;57.20;;;;;;7905065;28;20204;-53
2022/04/02 05:34:30;;;;;;;3.10;1.73;;;18.40;57.10;;;;;;7904898;28;20246;-52
2022/04/02 05:38:16;;;;;;;3.33;1.77;;;18.50;57.10;;;;;;7905104;28;20206;-52
2022/04/02 05:42:02;;;;;;;2.83;1.77;;;18.50;57.40;;;;;;7908636;28;20263;-52
2022/04/02 05:45:48;;;;;;;5.00;1.80;;;18.60;57.40;;;;;;7904719;28;20215;-53
2022/04/02 05:49:33;;;;;;;6.20;2.22;;;18.60;58.00;;;;;;7904335;28;20213;-53
2022/04/02 05:53:19;;;;;;;17.92;2.78;;;18.70;57.70;;;;;;7904995;28;20197;-54
2022/04/02 05:57:04;;;;;;;14.70;2.58;;;18.70;57.80;;;;;;7904611;28;20188;-52
2022/04/02 06:00:50;;;;;;;26.85;3.92;;;18.80;57.50;;;;;;7904500;28;20314;-52
2022/04/02 06:04:37;;;;;;;35.78;5.22;;;18.80;58.00;;;;;;7904649;28;20204;-52
2022/04/02 06:08:23;;;;;;;20.73;4.32;;;18.80;58.00;;;;;;7904864;28;20192;-53
2022/04/02 06:12:09;;;;;;;18.55;3.83;;;18.80;57.40;;;;;;7904721;28;20192;-53
2022/04/02 06:15:54;;;;;;;9.45;3.47;;;18.80;57.40;;;;;;7904447;28;20288;-52
2022/04/02 06:19:39;;;;;;;8.07;3.38;;;18.90;57.10;;;;;;7903982;28;20593;-52
2022/04/02 06:23:25;;;;;;;16.17;4.15;;;18.90;56.80;;;;;;7903955;28;20197;-53
2022/04/02 06:27:11;;;;;;;15.55;5.30;;;19.00;57.20;;;;;;7903978;28;20192;-53
2022/04/02 06:30:56;;;;;;;8.68;3.40;;;19.00;56.90;;;;;;7903536;28;20200;-53
2022/04/02 06:34:42;;;;;;;13.07;3.63;;;19.10;56.80;;;;;;7903745;28;20196;-53
2022/04/02 06:38:27;;;;;;;151.15;9.77;;;19.30;57.40;;;;;;7903580;28;20177;-52
2022/04/02 06:42:13;;;;;;;46.83;5.28;;;19.40;58.40;;;;;;7903147;28;20184;-51
2022/04/02 06:45:58;;;;;;;47.15;5.00;;;19.60;58.40;;;;;;7903254;28;20197;-54
2022/04/02 06:49:44;;;;;;;103.97;8.10;;;19.70;58.70;;;;;;7928549;28;20247;-53
2022/04/02 06:53:29;;;;;;;77.85;6.03;;;19.80;58.70;;;;;;7934716;28;20200;-53
2022/04/02 06:57:21;;;;;;;70.90;7.03;;;19.90;59.70;;;;;;7934615;27;20191;-54
2022/04/02 07:01:07;;;;;;;59.95;5.72;;;20.00;60.00;;;;;;7922142;27;20181;-53
2022/04/02 07:04:52;;;;;;;59.72;4.93;;;20.10;59.80;;;;;;7907376;28;20681;-55
2022/04/02 07:08:38;;;;;;;41.55;5.70;;;20.20;59.30;;;;;;7901811;28;20203;-53
2022/04/02 07:12:24;;;;;;;43.65;5.45;;;20.30;59.50;;;;;;7902372;28;20612;-54
2022/04/02 07:16:10;;;;;;;34.72;5.40;;;20.30;60.10;;;;;;7902395;28;20197;-55
2022/04/02 07:19:57;;;;;;;35.00;4.35;;;20.30;55.40;;;;;;7902317;28;20180;-54
2022/04/02 07:23:45;;;;;;;21.77;4.18;;;20.20;56.60;;;;;;7902198;28;20235;-55
2022/04/02 07:27:31;;;;;;;26.02;3.97;;;20.10;55.10;;;;;;7902338;28;20191;-54
2022/04/02 07:31:17;;;;;;;40.28;3.60;;;20.10;55.80;;;;;;7932068;28;20768;-56
2022/04/02 07:35:02;;;;;;;20.73;3.13;;;20.00;54.30;;;;;;7932249;28;20223;-56
2022/04/02 07:39:03;;;;;;;21.05;3.63;;;20.00;55.50;;;;;;7927154;28;20184;-59
2022/04/02 07:43:09;;;;;;;23.25;4.13;;;20.00;55.00;;;;;;7900966;28;20192;-54
2022/04/02 07:46:57;;;;;;;15.52;3.88;;;20.10;57.50;;;;;;7900958;28;20241;-53
2022/04/02 07:50:45;;;;;;;20.25;4.90;;;20.20;58.10;;;;;;7901247;28;20204;-55
2022/04/02 07:54:37;;;;;;;19.30;6.95;;;20.50;58.10;;;;;;7913956;28;20692;-53
2022/04/02 07:58:31;;;;;;;18.90;6.18;;;20.70;58.60;;;;;;7900997;28;20199;-53
2022/04/02 08:06:21;;;;;;;20.33;5.68;;;21.00;58.00;;;;;;7916462;28;20200;-53
2022/04/02 08:10:10;;;;;;;18.60;5.47;;;21.00;58.90;;;;;;7902837;28;20313;-52
2022/04/02 08:13:57;;;;;;;19.92;5.32;;;21.10;59.30;;;;;;7913325;28;20191;-52
2022/04/02 08:17:46;;;;;;;18.27;5.32;;;21.10;59.50;;;;;;7910520;28;20205;-53
2022/04/02 08:21:31;;;;;;;17.30;4.32;;;21.20;59.40;;;;;;7932065;28;20187;-52
2022/04/02 08:25:17;;;;;;;15.23;3.83;;;21.20;59.30;;;;;;7928710;28;20913;-53
2022/04/02 08:29:27;;;;;;;9.57;3.60;;;21.30;59.30;;;;;;7930442;28;20256;-53
2022/04/02 08:33:45;;;;;;;9.27;3.78;;;21.20;59.20;;;;;;7930215;28;20274;-51
2022/04/02 08:37:50;;;;;;;12.55;3.00;;;21.30;59.40;;;;;;7908770;28;20187;-53
2022/04/02 08:42:35;;;;;;;13.88;3.03;;;21.20;58.90;;;;;;7900153;28;20188;-52
2022/04/02 08:46:35;;;;;;;5.50;2.88;;;21.20;59.30;;;;;;7900783;28;20197;-53
2022/04/02 08:50:29;;;;;;;14.73;2.78;;;21.20;58.60;;;;;;7899939;28;20231;-54
2022/04/02 08:54:23;;;;;;;14.98;2.90;;;21.20;57.80;;;;;;7900445;28;20192;-53
2022/04/02 08:58:25;;;;;;;23.60;3.85;;;21.20;59.00;;;;;;7900865;28;20800;-53
2022/04/02 09:02:47;;;;;;;10.68;2.78;;;21.20;59.20;;;;;;7900093;28;20173;-55
2022/04/02 09:06:58;;;;;;;21.55;3.28;;;21.20;60.00;;;;;;7906198;28;20208;-54
2022/04/02 09:11:21;;;;;;;19.45;3.53;;;21.20;60.00;;;;;;7900033;28;20248;-53
2022/04/02 09:15:07;;;;;;;15.63;3.50;;;21.20;60.90;;;;;;7900265;28;20324;-55
2022/04/02 09:19:29;;;;;;;24.10;2.97;;;21.20;59.90;;;;;;7899981;28;20251;-53
2022/04/02 09:23:21;;;;;;;15.50;2.50;;;21.20;60.70;;;;;;7902577;28;20282;-55
2022/04/02 09:27:49;;;;;;;15.70;4.78;;;21.20;61.10;;;;;;7899515;28;20234;-51
2022/04/02 09:32:05;;;;;;;25.30;3.70;;;21.30;59.30;;;;;;7923467;28;20286;-53
2022/04/02 09:36:32;;;;;;;32.25;3.63;;;21.30;62.40;;;;;;7932744;28;20192;-55
2022/04/02 09:40:20;;;;;;;33.60;4.25;;;21.50;62.70;;;;;;7915967;28;20244;-55
2022/04/02 09:44:24;;;;;;;35.40;3.58;;;21.60;62.10;;;;;;7905266;28;20561;-53
2022/04/02 09:48:54;;;;;;;21.80;3.10;;;21.80;62.70;;;;;;7917701;28;20214;-53
2022/04/02 09:53:05;;;;;;;17.20;3.08;;;21.90;62.90;;;;;;7913316;28;20200;-53
2022/04/02 09:57:07;;;;;;;13.90;2.92;;;22.10;62.90;;;;;;7918573;28;20176;-54
2022/04/02 10:01:24;;;;;;;18.33;4.18;;;22.20;62.80;;;;;;7918909;28;20549;-54
2022/04/02 10:05:14;;;;;;;14.88;2.45;;;22.30;63.10;;;;;;7918315;28;20678;-52
2022/04/02 10:09:06;;;;;;;19.42;3.03;;;22.30;63.00;;;;;;7930037;28;20249;-53
2022/04/02 10:12:54;;;;;;;14.57;2.63;;;22.40;63.10;;;;;;7928754;28;20185;-53
2022/04/02 10:16:40;;;;;;;29.65;3.05;;;22.40;63.10;;;;;;7918366;28;20180;-53
2022/04/02 10:20:29;;;;;;;26.73;3.97;;;22.40;63.10;;;;;;7916457;28;20219;-53
2022/04/02 10:24:23;;;;;;;13.25;2.25;;;22.40;63.10;;;;;;7918609;28;20195;-53
2022/04/02 10:28:13;;;;;;;14.95;3.17;;;22.20;63.40;;;;;;7916686;28;20188;-52
2022/04/02 10:32:25;;;;;;;16.50;3.40;;;22.20;63.10;;;;;;7917750;28;20769;-55
2022/04/02 10:36:10;;;;;;;10.68;3.47;;;22.10;63.80;;;;;;7903726;28;20196;-52
2022/04/02 10:40:01;;;;;;;25.17;4.28;;;22.10;63.80;;;;;;7903319;28;20181;-54
2022/04/02 10:44:02;;;;;;;28.88;6.88;;;22.00;63.90;;;;;;7902887;28;20599;-53
2022/04/02 10:47:56;;;;;;;26.13;5.95;;;22.00;63.00;;;;;;7903498;28;20776;-53
2022/04/02 10:51:43;;;;;;;23.35;5.32;;;21.90;63.80;;;;;;7902794;28;20211;-53
2022/04/02 10:55:29;;;;;;;26.52;4.85;;;21.90;64.10;;;;;;7903162;28;20193;-53
2022/04/02 10:59:17;;;;;;;21.42;5.20;;;21.90;64.40;;;;;;7902727;28;20536;-55
2022/04/02 11:03:06;;;;;;;31.90;5.25;;;21.90;64.70;;;;;;7902971;28;20189;-53
2022/04/02 11:06:51;;;;;;;25.13;5.57;;;21.90;64.90;;;;;;7902973;28;20187;-54
2022/04/02 11:10:38;;;;;;;19.02;4.53;;;21.90;64.90;;;;;;7902596;28;20208;-53
2022/04/02 11:14:24;;;;;;;21.02;5.07;;;21.90;64.90;;;;;;7902530;28;20196;-56
2022/04/02 11:18:20;;;;;;;19.40;4.63;;;21.90;65.00;;;;;;7925643;28;20206;-53
2022/04/02 11:22:13;;;;;;;34.47;4.78;;;21.80;65.10;;;;;;7933597;28;20171;-54
2022/04/02 11:26:03;;;;;;;24.73;4.80;;;21.80;64.90;;;;;;7930626;28;20250;-53
2022/04/02 11:29:51;;;;;;;26.98;4.88;;;21.80;65.20;;;;;;7915466;28;20204;-53
2022/04/02 11:33:51;;;;;;;30.05;4.90;;;21.80;65.10;;;;;;7922667;28;20201;-55
2022/04/02 11:37:56;;;;;;;33.85;4.72;;;21.70;65.50;;;;;;7904085;28;20263;-54
2022/04/02 11:41:42;;;;;;;27.05;5.13;;;21.70;64.70;;;;;;7900935;28;20188;-55
2022/04/02 11:45:29;;;;;;;22.48;4.03;;;21.60;64.00;;;;;;7901426;28;20203;-52
2022/04/02 11:49:37;;;;;;;31.52;4.75;;;21.60;65.30;;;;;;7905063;28;20238;-52
2022/04/02 11:53:29;;;;;;;29.45;4.50;;;21.60;64.70;;;;;;7930963;28;20673;-52
2022/04/02 11:57:18;;;;;;;21.33;3.72;;;21.60;64.80;;;;;;7932687;27;20168;-53
2022/04/02 12:01:05;;;;;;;19.02;3.67;;;21.60;64.70;;;;;;7932534;28;20172;-52
2022/04/02 12:05:00;;;;;;;20.83;3.90;;;21.60;64.50;;;;;;7932521;28;20585;-52
2022/04/02 12:08:46;;;;;;;12.73;3.70;;;21.60;64.40;;;;;;7932630;28;20202;-52
2022/04/02 12:12:32;;;;;;;17.90;4.22;;;21.60;64.20;;;;;;7932445;28;20669;-53
2022/04/02 12:16:20;;;;;;;20.33;3.50;;;21.60;64.10;;;;;;7932476;28;20599;-53
2022/04/02 12:20:07;;;;;;;15.00;3.05;;;21.50;63.80;;;;;;7932282;28;20225;-53
2022/04/02 12:23:56;;;;;;;17.65;3.38;;;21.60;63.70;;;;;;7932291;28;20192;-51
2022/04/02 12:27:50;;;;;;;14.68;3.50;;;21.50;63.50;;;;;;7932167;28;20180;-53
2022/04/02 12:31:36;;;;;;;21.80;2.97;;;21.50;63.40;;;;;;7931770;28;20268;-52
2022/04/02 12:35:26;;;;;;;9.32;2.75;;;21.50;63.40;;;;;;7932022;28;20278;-52
2022/04/02 12:39:17;;;;;;;11.25;2.50;;;21.50;63.30;;;;;;7931902;28;20192;-50
2022/04/02 12:43:05;;;;;;;9.70;2.40;;;21.50;63.20;;;;;;7931834;28;20175;-52
2022/04/02 12:46:52;;;;;;;9.60;2.85;;;21.50;63.20;;;;;;7931881;28;20175;-54
2022/04/02 12:50:49;;;;;;;17.10;2.67;;;21.40;63.00;;;;;;7931275;28;20230;-52
2022/04/02 12:54:35;;;;;;;8.88;2.65;;;21.40;62.90;;;;;;7931657;28;20578;-52
2022/04/02 12:58:30;;;;;;;11.43;2.80;;;21.40;62.60;;;;;;7931625;28;20168;-53
2022/04/02 13:02:20;;;;;;;9.25;2.28;;;21.40;62.90;;;;;;7931285;28;20671;-52
2022/04/02 13:06:12;;;;;;;8.48;2.22;;;21.40;62.70;;;;;;7935404;28;20689;-55
2022/04/02 13:10:04;;;;;;;10.05;2.40;;;21.40;63.70;;;;;;7925585;28;20204;-54
2022/04/02 13:14:12;;;;;;;7.75;2.28;;;21.30;62.70;;;;;;7917158;28;20277;-53
2022/04/02 13:22:12;;;;;;;7.03;2.88;;;21.30;62.20;;;;;;7906092;28;20188;-53
2022/04/02 13:26:12;;;;;;;8.88;2.50;;;21.20;62.70;;;;;;7907351;28;20682;-53
2022/04/02 13:30:09;;;;;;;9.10;2.50;;;21.20;63.00;;;;;;7905271;28;20230;-53
2022/04/02 13:34:18;;;;;;;13.43;2.80;;;21.20;62.90;;;;;;7919001;28;20211;-52
2022/04/02 13:38:08;;;;;;;10.27;3.20;;;21.20;62.80;;;;;;7902720;28;20231;-55
2022/04/02 13:41:57;;;;;;;9.02;2.72;;;21.20;63.30;;;;;;7908201;28;20181;-54
2022/04/02 13:45:46;;;;;;;15.93;2.67;;;21.20;63.30;;;;;;7905448;28;20212;-54
2022/04/02 13:49:41;;;;;;;10.27;2.63;;;21.20;63.30;;;;;;7904499;28;20246;-54
2022/04/02 13:53:35;;;;;;;11.30;3.00;;;21.20;63.10;;;;;;7921764;28;20221;-52
2022/04/02 13:57:32;;;;;;;14.45;2.72;;;21.20;62.80;;;;;;7929597;28;20290;-51
2022/04/02 14:01:20;;;;;;;18.83;2.85;;;21.20;63.10;;;;;;7934846;28;20236;-51
2022/04/02 14:05:29;;;;;;;12.80;2.60;;;21.20;63.40;;;;;;7917902;28;20783;-52
2022/04/02 14:09:18;;;;;;;7.82;2.42;;;21.30;63.40;;;;;;7906121;28;20569;-52
2022/04/02 14:13:14;;;;;;;15.23;3.40;;;21.30;63.40;;;;;;7935882;28;20611;-52
2022/04/02 14:17:09;;;;;;;11.30;1.92;;;21.40;62.90;;;;;;7935771;28;20221;-52
2022/04/02 14:20:57;;;;;;;9.07;2.17;;;21.40;63.10;;;;;;7927573;28;20173;-52
2022/04/02 14:24:59;;;;;;;6.18;2.13;;;21.40;62.80;;;;;;7904040;28;20196;-53
2022/04/02 14:29:01;;;;;;;9.63;2.22;;;21.50;62.90;;;;;;7904066;28;20180;-52
2022/04/02 14:33:16;;;;;;;10.38;2.38;;;21.50;62.70;;;;;;7903800;28;20165;-53
2022/04/02 14:37:24;;;;;;;5.72;1.98;;;21.50;62.70;;;;;;7903788;28;20165;-53
2022/04/02 14:41:49;;;;;;;10.27;1.70;;;21.50;62.70;;;;;;7903547;28;20191;-54
2022/04/02 14:46:05;;;;;;;7.30;2.33;;;21.50;62.60;;;;;;7903409;28;20196;-53
2022/04/02 14:50:05;;;;;;;6.38;1.92;;;21.50;62.70;;;;;;7903251;28;20678;-52
2022/04/02 14:54:45;;;;;;;3.28;1.60;;;21.50;62.70;;;;;;7902859;28;20739;-52
2022/04/02 14:59:07;;;;;;;9.45;2.45;;;21.50;62.70;;;;;;7903282;28;20791;-52
2022/04/02 15:03:07;;;;;;;4.50;1.80;;;21.50;62.70;;;;;;7930255;28;20180;-53
2022/04/02 15:07:26;;;;;;;4.30;1.92;;;21.40;62.60;;;;;;7934608;28;20657;-53
2022/04/02 15:11:15;;;;;;;9.20;1.85;;;21.40;62.60;;;;;;7934311;28;20200;-52
2022/04/02 15:15:04;;;;;;;3.22;1.67;;;21.40;62.70;;;;;;7934428;28;20530;-55
2022/04/02 15:18:49;;;;;;;6.10;1.75;;;21.30;62.50;;;;;;7934401;28;20242;-55
2022/04/02 15:22:37;;;;;;;2.42;1.52;;;21.30;62.60;;;;;;7934059;28;20208;-52
2022/04/02 15:26:23;;;;;;;3.03;1.52;;;21.30;62.60;;;;;;7933835;28;20187;-54
2022/04/02 15:30:09;;;;;;;4.38;1.77;;;21.30;62.70;;;;;;7930085;28;20636;-52
2022/04/02 15:33:55;;;;;;;12.18;2.65;;;21.20;62.20;;;;;;7910559;28;20589;-53
2022/04/02 15:37:41;;;;;;;7.85;2.05;;;21.20;62.20;;;;;;7933499;28;20164;-55
2022/04/02 15:41:49;;;;;;;5.63;1.80;;;21.20;62.50;;;;;;7915057;28;20263;-54
2022/04/02 15:45:36;;;;;;;8.50;2.20;;;21.20;62.60;;;;;;7901276;28;20203;-55
2022/04/02 15:49:34;;;;;;;7.75;1.55;;;21.20;62.60;;;;;;7901192;28;20387;-52
2022/04/02 15:53:19;;;;;;;10.50;1.98;;;21.10;62.60;;;;;;7900080;28;20192;-52
2022/04/02 15:57:05;;;;;;;6.97;2.03;;;21.00;62.10;;;;;;7899287;28;20169;-53
2022/04/02 16:00:57;;;;;;;6.57;1.65;;;21.00;62.30;;;;;;7899364;28;20183;-52
2022/04/02 16:05:12;;;;;;;8.95;2.22;;;21.00;62.60;;;;;;7899421;28;20866;-52
2022/04/02 16:09:06;;;;;;;11.88;2.05;;;21.00;62.70;;;;;;7931246;28;20172;-52
2022/04/02 16:12:52;;;;;;;6.07;2.08;;;20.90;62.50;;;;;;7931373;28;20180;-52
2022/04/02 16:16:49;;;;;;;8.43;1.88;;;21.00;62.40;;;;;;7931260;28;20226;-50
2022/04/02 16:20:35;;;;;;;12.27;2.13;;;21.00;62.70;;;;;;7929926;28;20255;-51
2022/04/02 16:24:20;;;;;;;10.25;2.15;;;21.10;62.70;;;;;;7899515;28;20207;-52
2022/04/02 16:28:06;;;;;;;12.77;1.92;;;21.20;62.60;;;;;;7898220;28;20224;-50
2022/04/02 16:31:52;;;;;;;9.68;2.83;;;21.30;62.50;;;;;;7928931;28;20203;-49
2022/04/02 16:35:38;;;;;;;13.63;2.38;;;21.50;62.70;;;;;;7929936;28;20223;-49
2022/04/02 16:39:23;;;;;;;6.97;2.58;;;21.60;62.70;;;;;;7928310;28;20182;-51
2022/04/02 16:43:10;;;;;;;8.90;1.88;;;21.80;62.70;;;;;;7930259;28;20529;-50
2022/04/02 16:47:02;;;;;;;8.10;2.22;;;22.00;62.60;;;;;;7899092;28;20222;-49
2022/04/02 16:51:11;;;;;;;14.83;2.60;;;22.10;62.40;;;;;;7885335;28;982704;-52
2022/04/02 16:54:57;;;;;;;8.88;2.50;;;21.90;63.30;;;;;;7931556;28;20560;-52
2022/04/02 16:58:57;;;;;;;11.15;2.83;;;22.20;63.10;;;;;;7926341;28;20188;-50
2022/04/02 17:02:46;;;;;;;6.88;2.45;;;22.40;62.80;;;;;;7921576;28;20645;-50
2022/04/02 17:06:34;;;;;;;11.48;2.83;;;22.50;62.40;;;;;;7929826;28;20223;-50
2022/04/02 17:10:24;;;;;;;12.50;3.20;;;22.60;62.10;;;;;;7930078;28;20337;-49
2022/04/02 17:14:09;;;;;;;22.40;3.38;;;22.80;62.20;;;;;;7928226;28;20233;-49
2022/04/02 17:18:05;;;;;;;17.70;3.28;;;22.80;62.30;;;;;;7930493;28;20191;-50
2022/04/02 17:21:51;;;;;;;14.48;3.25;;;22.80;62.40;;;;;;7930262;28;20211;-50
2022/04/02 17:25:39;;;;;;;22.58;4.32;;;22.80;62.30;;;;;;7930338;28;20284;-51
2022/04/02 17:29:24;;;;;;;20.80;4.15;;;22.70;62.70;;;;;;7918858;28;20200;-52
2022/04/02 17:33:22;;;;;;;20.02;4.03;;;22.70;62.70;;;;;;7898949;28;20187;-52
2022/04/02 17:37:07;;;;;;;14.85;4.35;;;22.70;62.70;;;;;;7898998;28;20263;-51
2022/04/02 17:41:13;;;;;;;21.60;4.53;;;22.60;62.50;;;;;;7898431;28;20177;-53
2022/04/02 17:45:22;;;;;;;11.95;3.75;;;22.60;62.50;;;;;;7903966;28;20204;-52
2022/04/02 17:49:07;;;;;;;13.88;3.72;;;22.60;62.60;;;;;;7922843;28;20668;-54
2022/04/02 17:52:56;;;;;;;18.55;3.97;;;22.60;62.50;;;;;;7935040;28;20532;-52
2022/04/02 17:56:42;;;;;;;21.70;4.43;;;22.50;63.00;;;;;;7936065;27;20204;-49
2022/04/02 18:00:27;;;;;;;24.98;4.40;;;22.40;63.50;;;;;;7935123;28;20661;-52
2022/04/02 18:04:16;;;;;;;30.25;4.68;;;22.40;63.90;;;;;;7935616;28;20204;-49
2022/04/02 18:08:02;;;;;;;33.83;4.95;;;22.40;64.00;;;;;;7935390;28;20669;-51
2022/04/02 18:11:47;;;;;;;26.10;5.57;;;22.30;64.30;;;;;;7934892;28;20651;-51
2022/04/02 18:15:33;;;;;;;33.17;4.75;;;22.30;64.70;;;;;;7913686;28;20213;-50
2022/04/02 18:19:18;;;;;;;28.27;4.35;;;22.20;64.80;;;;;;7902921;28;20181;-52
2022/04/02 18:23:04;;;;;;;24.88;4.32;;;22.20;64.90;;;;;;7903276;28;20181;-51
2022/04/02 18:26:49;;;;;;;24.38;4.38;;;22.10;65.20;;;;;;7903190;28;20164;-49
2022/04/02 18:30:35;;;;;;;18.67;4.35;;;22.10;65.20;;;;;;7902260;28;20299;-52
2022/04/02 18:34:20;;;;;;;21.30;4.40;;;22.00;65.10;;;;;;7903041;28;20192;-51
2022/04/02 18:38:06;;;;;;;32.08;4.40;;;22.00;65.50;;;;;;7902370;28;20169;-49
2022/04/02 18:41:55;;;;;;;29.08;4.30;;;21.90;65.30;;;;;;7905245;28;20592;-52
2022/04/02 18:45:42;;;;;;;29.35;4.63;;;21.90;65.50;;;;;;7926163;28;20239;-50
2022/04/02 18:49:29;;;;;;;40.58;4.82;;;21.80;66.80;;;;;;7933150;28;20227;-50
2022/04/02 18:53:14;;;;;;;35.15;4.85;;;21.80;66.20;;;;;;7930821;28;20211;-51
2022/04/02 18:57:00;;;;;;;17.75;3.55;;;21.80;66.20;;;;;;7909002;28;20169;-50
2022/04/02 19:00:46;;;;;;;15.57;3.97;;;21.80;66.20;;;;;;7909596;28;20184;-49
2022/04/02 19:04:32;;;;;;;23.52;3.95;;;21.80;66.20;;;;;;7901012;28;20199;-50
2022/04/02 19:08:18;;;;;;;20.58;3.38;;;21.90;66.20;;;;;;7901751;28;20630;-49
2022/04/02 19:12:04;;;;;;;24.20;4.20;;;21.80;66.00;;;;;;7901493;28;20215;-50
2022/04/02 19:15:49;;;;;;;25.45;4.15;;;21.80;66.00;;;;;;7901496;28;20686;-52
2022/04/02 19:19:35;;;;;;;27.75;3.45;;;21.80;66.00;;;;;;7900947;28;20650;-49
2022/04/02 19:23:20;;;;;;;25.67;3.28;;;21.70;66.00;;;;;;7901582;28;20204;-50
2022/04/02 19:27:06;;;;;;;13.13;2.97;;;21.70;66.10;;;;;;7902051;28;20177;-52
2022/04/02 19:30:53;;;;;;;20.33;3.58;;;21.60;66.20;;;;;;7926087;28;20212;-53
2022/04/02 19:34:38;;;;;;;21.33;3.22;;;21.60;66.30;;;;;;7933174;28;20196;-50
2022/04/02 19:38:24;;;;;;;19.23;3.13;;;21.50;66.30;;;;;;7932617;28;20252;-52
2022/04/02 19:42:10;;;;;;;15.27;3.15;;;21.50;66.30;;;;;;7933127;28;20233;-53
2022/04/02 19:45:56;;;;;;;26.50;4.68;;;21.50;66.10;;;;;;7906230;28;20619;-52
2022/04/02 19:49:41;;;;;;;18.52;3.55;;;21.40;65.70;;;;;;7902486;28;20369;-49
2022/04/02 19:53:27;;;;;;;26.95;3.88;;;21.30;66.10;;;;;;7919460;28;20208;-50
2022/04/02 19:57:13;;;;;;;17.35;3.63;;;21.30;65.90;;;;;;7914324;28;20585;-53
2022/04/02 20:00:58;;;;;;;22.38;3.60;;;21.20;65.70;;;;;;7927448;28;20184;-54